createdAt,value
2023-02-14T00:03:18.906Z,17.73
2023-02-14T00:08:21.427Z,18.17
2023-02-14T00:13:27.273Z,18.92
2023-02-14T00:19:01.966Z,19.08
2023-02-14T00:24:15.226Z,19.85
2023-02-14T00:29:34.015Z,15.90
2023-02-14T00:34:43.071Z,16.50
2023-02-14T00:39:48.221Z,20.30
2023-02-14T00:44:54.053Z,18.33
2023-02-14T00:50:05.864Z,22.40
2023-02-14T00:55:14.858Z,21.67
2023-02-14T01:00:31.516Z,20.70
2023-02-14T01:05:35.945Z,18.92
2023-02-14T01:10:42.693Z,20.48
2023-02-14T01:15:51.267Z,24.42
2023-02-14T01:21:21.977Z,21.17
2023-02-14T01:26:36.635Z,23.25
2023-02-14T01:31:43.489Z,20.02
2023-02-14T01:36:53.592Z,19.92
2023-02-14T01:42:00.559Z,24.90
2023-02-14T01:47:15.876Z,19.55
2023-02-14T01:52:42.788Z,22.42
2023-02-14T01:58:00.325Z,21.73
2023-02-14T02:05:25.985Z,20.75
2023-02-14T02:10:33.787Z,18.02
2023-02-14T02:15:55.284Z,20.83
2023-02-14T02:21:22.459Z,22.38
2023-02-14T02:26:55.873Z,19.20
2023-02-14T02:32:24.654Z,20.38
2023-02-14T02:37:54.365Z,21.40
2023-02-14T02:43:38.175Z,21.10
2023-02-14T02:49:49.193Z,19.30
2023-02-14T02:55:06.242Z,19.83
2023-02-14T03:00:15.472Z,16.33
2023-02-14T03:05:35.546Z,17.38
2023-02-14T03:10:40.024Z,18.80
2023-02-14T03:16:15.932Z,21.33
2023-02-14T03:22:14.290Z,15.75
2023-02-14T03:27:50.664Z,16.35
2023-02-14T03:33:06.904Z,17.95
2023-02-14T03:38:50.363Z,16.77
2023-02-14T03:44:04.293Z,16.90
2023-02-14T03:49:21.017Z,19.90
2023-02-14T03:54:27.649Z,20.58
2023-02-14T03:59:35.950Z,19.23
2023-02-14T04:04:47.933Z,20.00
2023-02-14T04:09:50.139Z,18.42
2023-02-14T04:14:57.485Z,21.65
2023-02-14T04:20:02.931Z,17.33
2023-02-14T04:25:14.711Z,19.25
2023-02-14T04:30:29.003Z,20.67
2023-02-14T04:35:35.003Z,18.05
2023-02-14T04:46:02.293Z,17.63
2023-02-14T04:51:08.243Z,17.20
2023-02-14T04:56:14.237Z,19.30
2023-02-14T05:22:53.334Z,19.10
2023-02-14T05:27:58.272Z,21.08
2023-02-14T05:33:04.626Z,18.58
2023-02-14T05:38:07.255Z,22.73
2023-02-14T05:48:14.647Z,18.95
2023-02-14T05:53:17.500Z,19.83
2023-02-14T05:58:19.720Z,23.55
2023-02-14T06:03:24.324Z,28.02
2023-02-14T06:08:31.541Z,20.92
2023-02-14T06:13:34.395Z,22.70
2023-02-14T06:18:36.725Z,31.75
2023-02-14T06:23:41.915Z,23.58
2023-02-14T06:28:47.039Z,20.90
2023-02-14T06:33:52.842Z,20.73
2023-02-14T06:38:55.148Z,25.90
2023-02-14T06:44:05.846Z,22.20
2023-02-14T06:49:13.599Z,21.95
2023-02-14T06:54:18.675Z,21.02
2023-02-14T06:59:22.153Z,24.33
2023-02-14T07:04:30.702Z,20.33
2023-02-14T07:09:34.963Z,18.92
2023-02-14T07:14:45.286Z,26.13
2023-02-14T07:19:52.530Z,20.35
2023-02-14T07:25:03.270Z,19.65
2023-02-14T07:30:15.659Z,32.45
2023-02-14T07:35:18.384Z,25.63
2023-02-14T07:40:29.314Z,25.50
2023-02-14T07:45:34.365Z,19.20
2023-02-14T07:50:45.510Z,19.45
2023-02-14T08:01:23.015Z,23.20
2023-02-14T08:06:30.604Z,25.52
2023-02-14T08:11:56.498Z,29.35
2023-02-14T08:17:02.988Z,23.73
2023-02-14T08:22:11.831Z,24.40
2023-02-14T08:27:16.726Z,19.80
2023-02-14T08:32:24.097Z,30.70
2023-02-14T08:37:32.531Z,25.10
2023-02-14T08:42:39.082Z,37.90
2023-02-14T08:47:44.250Z,27.05
2023-02-14T08:52:49.275Z,22.10
2023-02-14T08:58:01.783Z,25.67
2023-02-14T09:03:07.880Z,23.15
2023-02-14T09:08:15.503Z,25.80
2023-02-14T09:13:21.546Z,23.95
2023-02-14T09:18:26.631Z,21.05
2023-02-14T09:23:31.264Z,24.00
2023-02-14T09:28:37.699Z,20.42
2023-02-14T09:33:43.548Z,23.13
2023-02-14T09:38:47.685Z,22.90
2023-02-14T09:43:57.113Z,19.33
2023-02-14T09:49:03.405Z,18.23
2023-02-14T09:54:13.337Z,14.77
2023-02-14T09:59:55.096Z,13.90
2023-02-14T10:05:18.183Z,14.40
2023-02-14T10:10:40.226Z,17.15
2023-02-14T10:15:48.765Z,16.75
2023-02-14T10:21:01.622Z,14.63
2023-02-14T10:26:11.968Z,15.07
2023-02-14T10:31:40.636Z,17.55
2023-02-14T10:37:10.831Z,13.65
2023-02-14T10:42:25.456Z,17.63
2023-02-14T10:47:51.028Z,15.48
2023-02-14T10:53:40.890Z,12.77
2023-02-14T10:58:52.467Z,11.00
2023-02-14T11:04:04.363Z,10.18
2023-02-14T11:09:15.152Z,9.32
2023-02-14T11:14:31.784Z,9.13
2023-02-14T11:19:37.534Z,7.47
2023-02-14T11:25:04.103Z,7.07
2023-02-14T11:30:20.353Z,5.88
2023-02-14T11:35:40.822Z,6.85
2023-02-14T11:40:42.859Z,6.07
2023-02-14T11:45:47.417Z,6.32
2023-02-14T11:51:27.040Z,6.00
2023-02-14T11:56:56.146Z,7.60
2023-02-14T12:02:23.583Z,6.82
2023-02-14T12:07:40.332Z,7.83
2023-02-14T12:13:00.982Z,7.50
2023-02-14T12:18:40.321Z,6.43
2023-02-14T12:24:22.342Z,6.40
2023-02-14T12:30:24.930Z,7.50
2023-02-14T12:41:19.949Z,3.45
2023-02-14T12:46:56.966Z,3.95
2023-02-14T12:52:37.459Z,4.32
2023-02-14T12:58:05.700Z,3.55
2023-02-14T13:03:49.826Z,4.30
2023-02-14T13:09:20.737Z,4.50
2023-02-14T13:14:46.638Z,4.07
2023-02-14T13:20:33.546Z,4.25
2023-02-14T13:31:15.137Z,10.48
2023-02-14T13:41:51.493Z,3.63
2023-02-14T13:52:27.537Z,3.78
2023-02-14T13:57:40.001Z,4.38
2023-02-14T14:08:24.881Z,4.47
2023-02-14T14:13:51.386Z,4.40
2023-02-14T14:19:35.833Z,3.13
2023-02-14T14:24:41.566Z,5.28
2023-02-14T14:29:57.779Z,19.38
2023-02-14T14:35:25.672Z,6.00
2023-02-14T14:40:30.041Z,4.25
2023-02-14T14:45:34.059Z,4.80
2023-02-14T14:50:47.252Z,4.05
2023-02-14T14:56:09.431Z,5.05
2023-02-14T15:01:24.790Z,4.32
2023-02-14T15:06:32.068Z,4.60
2023-02-14T15:11:56.079Z,3.85
2023-02-14T15:17:13.823Z,3.67
2023-02-14T15:22:52.894Z,3.67
2023-02-14T15:27:58.560Z,3.45
2023-02-14T15:33:13.137Z,3.72
2023-02-14T15:38:26.210Z,5.38
2023-02-14T15:43:40.176Z,5.43
2023-02-14T15:48:45.141Z,4.90
2023-02-14T15:54:39.344Z,3.95
2023-02-14T15:59:59.375Z,3.45
2023-02-14T16:05:23.894Z,3.80
2023-02-14T16:11:19.209Z,2.53
2023-02-14T16:16:27.929Z,4.40
2023-02-14T16:21:37.457Z,5.75
2023-02-14T16:26:49.455Z,3.15
2023-02-14T16:32:15.570Z,4.32
2023-02-14T16:37:43.920Z,3.40
2023-02-14T16:42:50.039Z,3.80
2023-02-14T16:47:59.159Z,5.35
2023-02-14T16:53:06.321Z,4.32
2023-02-14T16:58:12.818Z,3.97
2023-02-14T17:03:18.930Z,4.50
2023-02-14T17:08:33.123Z,5.35
2023-02-14T17:13:41.127Z,4.10
2023-02-14T17:18:51.681Z,3.45
2023-02-14T17:24:00.882Z,3.33
2023-02-14T17:29:09.100Z,3.70
2023-02-14T17:34:13.468Z,5.65
2023-02-14T17:39:19.529Z,4.30
2023-02-14T17:44:25.557Z,4.35
2023-02-14T17:49:28.298Z,5.55
2023-02-14T17:54:33.879Z,3.78
2023-02-14T17:59:38.147Z,3.60
2023-02-14T18:04:45.279Z,3.78
2023-02-14T18:09:48.764Z,4.05
2023-02-14T18:14:56.231Z,4.72
2023-02-14T18:20:08.601Z,6.05
2023-02-14T18:25:14.233Z,3.47
2023-02-14T18:30:24.203Z,5.85
2023-02-14T18:35:32.835Z,5.15
2023-02-14T18:40:40.068Z,5.78
2023-02-14T18:45:49.637Z,4.90
2023-02-14T18:50:52.819Z,6.05
2023-02-14T18:55:55.071Z,4.93
2023-02-14T19:01:03.121Z,4.07
2023-02-14T19:06:11.956Z,5.40
2023-02-14T19:11:33.675Z,4.25
2023-02-14T19:16:56.516Z,6.03
2023-02-14T19:22:04.019Z,5.82
2023-02-14T19:27:20.256Z,11.52
2023-02-14T19:32:36.690Z,8.02
2023-02-14T19:37:40.406Z,6.57
2023-02-14T19:42:44.101Z,7.20
2023-02-14T19:47:54.225Z,7.10
2023-02-14T19:53:01.980Z,5.18
2023-02-14T19:58:08.094Z,6.82
2023-02-14T20:03:15.346Z,7.63
2023-02-14T20:13:52.705Z,6.93
2023-02-14T20:19:02.252Z,7.65
2023-02-14T20:24:10.105Z,9.68
2023-02-14T20:29:17.459Z,9.90
2023-02-14T20:34:28.694Z,9.82
2023-02-14T20:39:36.146Z,12.63
2023-02-14T20:44:49.588Z,11.02
2023-02-14T20:49:52.762Z,10.03
2023-02-14T20:54:59.012Z,7.47
2023-02-14T21:00:08.334Z,8.77
2023-02-14T21:05:22.017Z,10.63
2023-02-14T21:10:27.892Z,10.13
2023-02-14T21:15:33.706Z,12.38
2023-02-14T21:20:40.368Z,10.45
2023-02-14T21:25:44.320Z,12.02
2023-02-14T21:30:48.962Z,9.93
2023-02-14T21:35:55.550Z,13.05
2023-02-14T21:41:12.360Z,9.73
2023-02-14T21:46:20.161Z,10.20
2023-02-14T21:51:26.753Z,9.00
2023-02-14T21:56:31.673Z,11.98
2023-02-14T22:01:43.960Z,9.32
2023-02-14T22:06:54.859Z,10.38
2023-02-14T22:12:13.727Z,10.55
2023-02-14T22:17:24.080Z,10.75
2023-02-14T22:22:40.346Z,9.88
2023-02-14T22:27:47.734Z,11.75
2023-02-14T22:32:52.070Z,10.43
2023-02-14T22:37:57.881Z,11.35
2023-02-14T22:43:02.651Z,11.95
2023-02-14T22:48:07.282Z,9.65
2023-02-14T22:53:16.078Z,11.27
2023-02-14T22:58:22.315Z,12.02
2023-02-14T23:03:27.477Z,13.73
2023-02-14T23:08:35.644Z,11.43
2023-02-14T23:13:57.227Z,12.48
2023-02-14T23:19:28.477Z,13.52
2023-02-14T23:24:35.545Z,9.77
2023-02-14T23:29:47.101Z,11.35
2023-02-14T23:34:53.143Z,10.23
2023-02-14T23:40:03.999Z,11.02
2023-02-14T23:45:29.403Z,11.30
2023-02-14T23:50:34.859Z,13.85
2023-02-14T23:55:38.437Z,13.00
